createdAt,value
2022-08-23T00:00:30.095Z,5.50
2022-08-23T00:02:58.602Z,6.13
2022-08-23T00:05:28.603Z,7.43
2022-08-23T00:07:57.114Z,8.25
2022-08-23T00:10:25.631Z,5.93
2022-08-23T00:12:55.618Z,6.38
2022-08-23T00:15:24.238Z,7.83
2022-08-23T00:17:52.607Z,6.82
2022-08-23T00:20:21.561Z,8.38
2022-08-23T00:22:50.233Z,6.37
2022-08-23T00:25:20.372Z,8.47
2022-08-23T00:27:49.904Z,6.87
2022-08-23T00:30:19.833Z,7.45
2022-08-23T00:32:48.421Z,6.15
2022-08-23T00:35:22.219Z,6.57
2022-08-23T00:38:31.824Z,6.63
2022-08-23T00:40:45.342Z,6.67
2022-08-23T00:43:32.106Z,8.53
2022-08-23T00:46:22.482Z,6.77
2022-08-23T00:48:51.148Z,5.73
2022-08-23T00:51:21.332Z,6.50
2022-08-23T00:53:51.519Z,7.37
2022-08-23T00:56:21.306Z,9.10
2022-08-23T00:58:49.833Z,6.60
2022-08-23T01:01:20.308Z,6.73
2022-08-23T01:04:04.534Z,5.87
2022-08-23T01:06:35.866Z,6.87
2022-08-23T01:09:07.235Z,7.20
2022-08-23T01:11:38.945Z,6.50
2022-08-23T01:14:11.237Z,6.20
2022-08-23T01:16:45.617Z,5.53
2022-08-23T01:19:17.178Z,8.40
2022-08-23T01:21:48.827Z,8.57
2022-08-23T01:24:32.780Z,5.50
2022-08-23T01:27:07.546Z,9.73
2022-08-23T01:29:36.021Z,5.93
2022-08-23T01:32:05.399Z,7.10
2022-08-23T01:34:35.127Z,8.37
2022-08-23T01:37:06.546Z,6.50
2022-08-23T01:39:37.055Z,5.80
2022-08-23T01:42:07.710Z,7.20
2022-08-23T01:44:36.626Z,9.03
2022-08-23T01:47:06.263Z,9.20
2022-08-23T01:49:34.756Z,6.63
2022-08-23T01:52:03.273Z,6.83
2022-08-23T01:54:31.845Z,8.23
2022-08-23T01:57:01.671Z,5.73
2022-08-23T01:59:30.249Z,7.17
2022-08-23T02:01:59.063Z,7.43
2022-08-23T02:04:27.744Z,5.83
2022-08-23T02:06:56.156Z,7.47
2022-08-23T02:09:25.574Z,7.53
2022-08-23T02:11:54.808Z,6.47
2022-08-23T02:14:24.594Z,6.87
2022-08-23T02:17:03.340Z,7.07
2022-08-23T02:19:33.439Z,6.13
2022-08-23T02:22:02.060Z,8.10
2022-08-23T02:24:31.785Z,6.90
2022-08-23T02:27:02.694Z,7.17
2022-08-23T02:29:32.699Z,8.10
2022-08-23T02:32:02.022Z,7.17
2022-08-23T02:34:31.662Z,7.63
2022-08-23T02:37:00.182Z,6.17
2022-08-23T02:39:28.733Z,6.30
2022-08-23T02:41:57.514Z,8.13
2022-08-23T02:44:26.289Z,7.53
2022-08-23T02:46:56.998Z,5.93
2022-08-23T02:49:25.390Z,6.20
2022-08-23T02:51:53.888Z,7.70
2022-08-23T02:54:22.469Z,7.10
2022-08-23T02:56:52.717Z,5.40
2022-08-23T02:59:21.228Z,6.53
2022-08-23T03:01:49.644Z,7.07
2022-08-23T03:04:19.960Z,6.80
2022-08-23T03:06:48.498Z,7.57
2022-08-23T03:09:17.148Z,6.73
2022-08-23T03:11:46.524Z,7.90
2022-08-23T03:14:15.319Z,8.30
2022-08-23T03:16:43.868Z,6.70
2022-08-23T03:19:12.939Z,6.07
2022-08-23T03:21:43.404Z,8.07
2022-08-23T03:24:12.287Z,7.67
2022-08-23T03:26:43.825Z,10.00
2022-08-23T03:29:12.451Z,6.43
2022-08-23T03:31:42.486Z,9.13
2022-08-23T03:34:12.203Z,7.90
2022-08-23T03:36:41.225Z,7.43
2022-08-23T03:39:11.534Z,6.37
2022-08-23T03:41:40.352Z,8.50
2022-08-23T03:44:08.871Z,7.57
2022-08-23T03:46:37.409Z,6.60
2022-08-23T03:49:06.725Z,8.23
2022-08-23T03:51:37.130Z,7.50
2022-08-23T03:54:06.504Z,9.40
2022-08-23T03:56:38.721Z,7.73
2022-08-23T03:59:08.698Z,7.93
2022-08-23T04:01:37.231Z,7.23
2022-08-23T04:04:06.610Z,9.43
2022-08-23T04:06:37.337Z,7.03
2022-08-23T04:09:06.098Z,7.97
2022-08-23T04:11:35.960Z,6.47
2022-08-23T04:14:04.518Z,7.87
2022-08-23T04:16:37.647Z,7.77
2022-08-23T04:19:06.466Z,6.00
2022-08-23T04:21:39.914Z,7.53
2022-08-23T04:24:08.491Z,8.73
2022-08-23T04:26:38.487Z,9.97
2022-08-23T04:29:06.903Z,7.10
2022-08-23T04:31:37.741Z,9.47
2022-08-23T04:34:08.045Z,7.37
2022-08-23T04:36:44.856Z,7.40
2022-08-23T04:39:20.369Z,10.67
2022-08-23T04:42:19.180Z,9.27
2022-08-23T04:44:50.179Z,6.87
2022-08-23T04:47:20.339Z,7.73
2022-08-23T04:49:48.824Z,9.73
2022-08-23T04:52:19.462Z,7.37
2022-08-23T04:54:56.617Z,7.70
2022-08-23T04:57:26.719Z,6.37
2022-08-23T04:59:55.350Z,7.90
2022-08-23T05:02:23.748Z,6.90
2022-08-23T05:04:52.132Z,7.03
2022-08-23T05:07:21.701Z,5.73
2022-08-23T05:10:03.363Z,7.00
2022-08-23T05:12:33.314Z,10.13
2022-08-23T05:15:02.304Z,6.87
2022-08-23T05:17:31.131Z,6.73
2022-08-23T05:19:59.654Z,6.27
2022-08-23T05:22:28.837Z,5.80
2022-08-23T05:24:58.297Z,7.57
2022-08-23T05:27:26.728Z,6.83
2022-08-23T05:29:56.556Z,5.83
2022-08-23T05:32:29.356Z,6.43
2022-08-23T05:34:59.964Z,6.47
2022-08-23T05:37:28.392Z,10.27
2022-08-23T05:39:56.780Z,7.13
2022-08-23T05:42:25.336Z,6.60
2022-08-23T05:44:53.755Z,7.67
2022-08-23T05:47:27.058Z,6.53
2022-08-23T05:49:55.628Z,6.50
2022-08-23T05:52:24.092Z,8.10
2022-08-23T05:54:52.447Z,8.27
2022-08-23T05:57:20.943Z,6.53
2022-08-23T05:59:49.502Z,7.85
2022-08-23T06:02:17.891Z,6.40
2022-08-23T06:04:48.065Z,7.45
2022-08-23T06:07:16.719Z,6.13
2022-08-23T06:09:45.232Z,11.35
2022-08-23T06:12:13.598Z,8.63
2022-08-23T06:14:42.309Z,6.40
2022-08-23T06:17:11.879Z,9.77
2022-08-23T06:19:40.367Z,8.25
2022-08-23T06:22:11.247Z,6.55
2022-08-23T06:24:39.650Z,6.15
2022-08-23T06:27:08.401Z,6.35
2022-08-23T06:29:38.378Z,6.47
2022-08-23T06:32:08.299Z,8.63
2022-08-23T06:34:37.997Z,8.65
2022-08-23T06:37:07.544Z,8.55
2022-08-23T06:39:37.904Z,7.43
2022-08-23T06:42:28.036Z,8.60
2022-08-23T06:44:57.077Z,8.35
2022-08-23T06:47:25.531Z,6.85
2022-08-23T06:49:58.094Z,7.45
2022-08-23T06:52:27.354Z,9.35
2022-08-23T06:54:57.691Z,8.05
2022-08-23T06:57:26.986Z,5.45
2022-08-23T06:59:55.366Z,5.85
2022-08-23T07:02:24.181Z,5.97
2022-08-23T07:04:54.312Z,6.97
2022-08-23T07:07:23.123Z,4.93
2022-08-23T07:09:52.005Z,7.00
2022-08-23T07:12:22.289Z,5.20
2022-08-23T07:14:50.763Z,6.88
2022-08-23T07:17:19.224Z,6.65
2022-08-23T07:19:48.719Z,6.68
2022-08-23T07:22:17.088Z,5.07
2022-08-23T07:24:46.102Z,5.45
2022-08-23T07:27:14.875Z,6.97
2022-08-23T07:29:44.485Z,7.35
2022-08-23T07:32:12.609Z,6.55
2022-08-23T07:34:40.813Z,6.03
2022-08-23T07:37:11.356Z,7.20
2022-08-23T07:39:44.269Z,6.30
2022-08-23T07:42:22.938Z,5.10
2022-08-23T07:44:56.047Z,7.18
2022-08-23T07:47:25.469Z,8.45
2022-08-23T07:49:53.781Z,8.38
2022-08-23T07:52:22.236Z,6.43
2022-08-23T07:54:50.724Z,7.30
2022-08-23T07:57:19.999Z,5.55
2022-08-23T07:59:49.063Z,5.43
2022-08-23T08:02:18.927Z,5.55
2022-08-23T08:04:47.493Z,6.80
2022-08-23T08:07:20.958Z,5.93
2022-08-23T08:09:49.833Z,6.45
2022-08-23T08:12:18.500Z,6.95
2022-08-23T08:14:48.291Z,5.85
2022-08-23T08:17:18.580Z,7.20
2022-08-23T08:19:47.161Z,5.13
2022-08-23T08:22:15.409Z,7.35
2022-08-23T08:24:44.511Z,5.93
2022-08-23T08:27:12.811Z,6.72
2022-08-23T08:29:43.923Z,5.30
2022-08-23T08:32:13.984Z,9.23
2022-08-23T08:34:44.437Z,5.35
2022-08-23T08:37:12.980Z,6.07
2022-08-23T08:39:45.716Z,5.90
2022-08-23T08:42:23.811Z,7.80
2022-08-23T08:44:54.686Z,5.63
2022-08-23T08:47:27.791Z,5.57
2022-08-23T08:49:59.964Z,5.50
2022-08-23T08:52:33.537Z,5.43
2022-08-23T08:55:05.080Z,5.38
2022-08-23T08:57:42.825Z,5.68
2022-08-23T09:00:13.904Z,7.13
2022-08-23T09:02:45.111Z,9.52
2022-08-23T09:05:16.234Z,5.78
2022-08-23T09:07:53.122Z,7.07
2022-08-23T09:10:47.291Z,6.50
2022-08-23T09:13:55.828Z,4.50
2022-08-23T09:16:45.989Z,5.72
2022-08-23T09:19:14.851Z,7.65
2022-08-23T09:21:47.585Z,6.85
2022-08-23T09:24:16.410Z,6.85
2022-08-23T09:26:45.476Z,5.97
2022-08-23T09:29:19.421Z,6.47
2022-08-23T09:31:50.854Z,8.10
2022-08-23T09:34:22.149Z,8.00
2022-08-23T09:36:52.385Z,6.35
2022-08-23T09:39:30.939Z,7.10
2022-08-23T09:41:59.955Z,7.03
2022-08-23T09:44:37.268Z,5.65
2022-08-23T09:47:07.080Z,8.52
2022-08-23T09:49:35.821Z,6.63
2022-08-23T09:52:22.008Z,4.97
2022-08-23T09:54:56.450Z,5.47
2022-08-23T09:57:27.895Z,5.18
2022-08-23T09:59:58.097Z,5.13
2022-08-23T10:02:29.702Z,5.40
2022-08-23T10:05:00.773Z,5.50
2022-08-23T10:07:34.680Z,5.68
2022-08-23T10:10:32.998Z,4.55
2022-08-23T10:13:02.143Z,4.15
2022-08-23T10:15:37.900Z,4.57
2022-08-23T10:18:09.842Z,4.25
2022-08-23T10:20:42.461Z,4.00
2022-08-23T10:23:21.199Z,3.92
2022-08-23T10:25:53.954Z,3.42
2022-08-23T10:28:45.569Z,4.22
2022-08-23T10:31:16.319Z,3.65
2022-08-23T10:33:48.462Z,3.78
2022-08-23T10:36:19.743Z,5.40
2022-08-23T10:38:56.772Z,4.72
2022-08-23T10:41:35.251Z,3.88
2022-08-23T10:44:08.972Z,3.80
2022-08-23T10:46:41.764Z,3.40
2022-08-23T10:49:13.697Z,4.15
2022-08-23T10:51:43.792Z,5.45
2022-08-23T10:54:18.671Z,5.68
2022-08-23T10:56:48.624Z,3.95
2022-08-23T10:59:21.605Z,4.22
2022-08-23T11:01:54.861Z,3.72
2022-08-23T11:04:25.830Z,4.25
2022-08-23T11:06:55.434Z,6.18
2022-08-23T11:09:32.995Z,4.50
2022-08-23T11:12:11.130Z,3.53
2022-08-23T11:14:41.805Z,3.92
2022-08-23T11:17:11.787Z,5.00
2022-08-23T11:19:50.839Z,3.80
2022-08-23T11:22:25.581Z,3.25
2022-08-23T11:24:57.149Z,5.07
2022-08-23T11:27:30.530Z,3.30
2022-08-23T11:29:59.132Z,2.65
2022-08-23T11:32:42.370Z,5.55
2022-08-23T11:35:29.600Z,5.38
2022-08-23T11:37:59.899Z,4.25
2022-08-23T11:40:41.943Z,3.05
2022-08-23T11:43:13.525Z,4.80
2022-08-23T11:45:46.530Z,6.85
2022-08-23T11:48:17.210Z,3.92
2022-08-23T11:51:07.905Z,6.20
2022-08-23T11:53:51.120Z,4.20
2022-08-23T11:56:34.529Z,4.05
2022-08-23T11:59:15.475Z,5.22
2022-08-23T12:01:45.560Z,6.13
2022-08-23T12:04:27.982Z,3.45
2022-08-23T12:07:01.826Z,2.65
2022-08-23T12:09:47.857Z,4.35
2022-08-23T12:12:27.378Z,4.35
2022-08-23T12:14:56.877Z,5.00
2022-08-23T12:17:43.845Z,4.85
2022-08-23T12:20:17.155Z,4.20
2022-08-23T12:22:57.445Z,4.80
2022-08-23T12:25:25.981Z,3.40
2022-08-23T12:27:59.446Z,5.50
2022-08-23T12:30:33.815Z,5.07
2022-08-23T12:33:06.212Z,2.70
2022-08-23T12:35:40.342Z,4.38
2022-08-23T12:38:14.253Z,4.00
2022-08-23T12:40:43.452Z,4.00
2022-08-23T12:43:26.065Z,4.35
2022-08-23T12:45:56.256Z,4.03
2022-08-23T12:48:26.925Z,5.10
2022-08-23T12:50:56.578Z,5.10
2022-08-23T12:53:29.009Z,5.03
2022-08-23T12:56:01.762Z,5.13
2022-08-23T12:58:33.722Z,4.10
2022-08-23T13:01:04.545Z,5.70
2022-08-23T13:03:34.977Z,4.78
2022-08-23T13:06:04.733Z,5.63
2022-08-23T13:08:35.167Z,4.35
2022-08-23T13:11:08.101Z,4.32
2022-08-23T13:13:39.560Z,5.93
2022-08-23T13:16:26.769Z,4.38
2022-08-23T13:18:56.795Z,7.55
2022-08-23T13:21:31.917Z,3.55
2022-08-23T13:24:23.025Z,3.88
2022-08-23T13:27:12.310Z,4.50
2022-08-23T13:29:51.658Z,4.03
2022-08-23T13:32:41.739Z,3.70
2022-08-23T13:35:27.994Z,3.75
2022-08-23T13:37:59.037Z,4.25
2022-08-23T13:40:29.486Z,4.75
2022-08-23T13:42:59.695Z,3.13
2022-08-23T13:45:31.060Z,4.25
2022-08-23T13:48:02.844Z,3.63
2022-08-23T13:50:32.130Z,3.60
2022-08-23T13:53:14.527Z,4.07
2022-08-23T13:55:45.429Z,2.95
2022-08-23T13:58:14.652Z,4.22
2022-08-23T14:00:45.790Z,3.33
2022-08-23T14:03:24.256Z,4.30
2022-08-23T14:05:52.947Z,3.75
2022-08-23T14:08:21.404Z,3.63
2022-08-23T14:10:49.959Z,5.20
2022-08-23T14:13:19.550Z,4.00
2022-08-23T14:15:57.197Z,3.30
2022-08-23T14:18:27.556Z,3.50
2022-08-23T14:20:56.442Z,3.60
2022-08-23T14:23:25.037Z,5.03
2022-08-23T14:25:56.051Z,3.35
2022-08-23T14:28:26.143Z,3.67
2022-08-23T14:31:05.376Z,4.68
2022-08-23T14:33:33.776Z,4.10
2022-08-23T14:36:02.155Z,4.18
2022-08-23T14:38:30.852Z,3.15
2022-08-23T14:41:00.297Z,7.45
2022-08-23T14:43:29.910Z,3.90
2022-08-23T14:45:59.194Z,3.80
2022-08-23T14:48:29.669Z,3.63
2022-08-23T14:50:59.196Z,3.28
2022-08-23T14:53:28.750Z,4.55
2022-08-23T14:56:18.636Z,4.25
2022-08-23T14:58:45.994Z,3.78
2022-08-23T15:01:14.621Z,4.40
2022-08-23T15:03:44.846Z,6.70
2022-08-23T15:06:14.100Z,5.15
2022-08-23T15:08:42.543Z,4.57
2022-08-23T15:14:00.806Z,3.10
2022-08-23T15:16:29.757Z,5.43
2022-08-23T15:19:01.768Z,4.07
2022-08-23T15:21:30.298Z,3.00
2022-08-23T15:23:58.981Z,3.63
2022-08-23T15:26:31.134Z,3.85
2022-08-23T15:29:00.024Z,3.63
2022-08-23T15:31:29.956Z,3.30
2022-08-23T15:33:58.752Z,4.32
2022-08-23T15:36:29.029Z,4.57
2022-08-23T15:38:57.633Z,3.28
2022-08-23T15:41:26.457Z,3.17
2022-08-23T15:43:55.401Z,3.33
2022-08-23T15:46:24.560Z,3.42
2022-08-23T15:48:55.905Z,3.63
2022-08-23T15:51:24.808Z,5.93
2022-08-23T15:53:54.827Z,4.80
2022-08-23T15:56:29.691Z,3.38
2022-08-23T15:58:58.283Z,3.47
2022-08-23T16:01:30.189Z,3.05
2022-08-23T16:04:02.174Z,7.10
2022-08-23T16:06:34.479Z,2.83
2022-08-23T16:09:06.816Z,4.38
2022-08-23T16:11:35.528Z,5.35
2022-08-23T16:14:04.236Z,3.10
2022-08-23T16:16:33.677Z,3.13
2022-08-23T16:19:02.105Z,3.08
2022-08-23T16:21:31.366Z,5.78
2022-08-23T16:24:00.302Z,4.85
2022-08-23T16:26:35.067Z,3.40
2022-08-23T16:29:04.833Z,4.35
2022-08-23T16:31:38.710Z,4.63
2022-08-23T16:34:08.560Z,5.47
2022-08-23T16:36:36.961Z,2.80
2022-08-23T16:39:05.704Z,1.95
2022-08-23T16:41:35.494Z,5.07
2022-08-23T16:44:03.761Z,4.53
2022-08-23T16:46:32.301Z,3.55
2022-08-23T16:49:00.768Z,3.85
2022-08-23T16:51:34.359Z,3.03
2022-08-23T16:54:03.506Z,4.13
2022-08-23T16:56:32.426Z,3.63
2022-08-23T16:59:02.320Z,4.20
2022-08-23T17:01:33.095Z,3.50
2022-08-23T17:04:01.716Z,3.45
2022-08-23T17:06:30.122Z,4.75
2022-08-23T17:08:58.591Z,3.67
2022-08-23T17:11:32.677Z,3.92
2022-08-23T17:14:05.010Z,4.60
2022-08-23T17:16:34.248Z,2.47
2022-08-23T17:19:03.613Z,4.50
2022-08-23T17:21:32.349Z,4.97
2022-08-23T17:24:00.817Z,3.65
2022-08-23T17:26:28.969Z,3.25
2022-08-23T17:28:57.524Z,3.35
2022-08-23T17:31:27.490Z,4.53
2022-08-23T17:33:56.736Z,5.63
2022-08-23T17:36:31.479Z,4.38
2022-08-23T17:39:00.049Z,14.07
2022-08-23T17:41:28.669Z,9.82
2022-08-23T17:43:58.378Z,12.02
2022-08-23T17:46:28.284Z,8.48
2022-08-23T17:48:57.739Z,12.90
2022-08-23T17:51:27.489Z,10.88
2022-08-23T17:53:56.904Z,9.32
2022-08-23T17:56:26.069Z,7.82
2022-08-23T17:58:55.467Z,7.15
2022-08-23T18:01:23.875Z,5.45
2022-08-23T18:03:53.512Z,6.70
2022-08-23T18:06:24.934Z,7.10
2022-08-23T18:08:55.324Z,4.35
2022-08-23T18:11:23.988Z,5.55
2022-08-23T18:13:53.089Z,5.65
2022-08-23T18:16:21.309Z,7.55
2022-08-23T18:18:49.647Z,4.20
2022-08-23T18:21:20.657Z,3.95
2022-08-23T18:23:57.648Z,4.15
2022-08-23T18:26:43.081Z,4.78
2022-08-23T18:29:14.005Z,7.07
2022-08-23T18:31:44.268Z,4.90
2022-08-23T18:34:13.473Z,7.75
2022-08-23T18:36:44.134Z,8.57
2022-08-23T18:39:13.797Z,8.23
2022-08-23T18:41:43.163Z,3.92
2022-08-23T18:44:13.461Z,5.38
2022-08-23T18:46:43.719Z,5.18
2022-08-23T18:49:13.319Z,5.13
2022-08-23T18:51:43.393Z,5.10
2022-08-23T18:54:11.896Z,5.57
2022-08-23T18:56:40.615Z,6.03
2022-08-23T18:59:09.009Z,5.35
2022-08-23T19:01:41.379Z,6.35
2022-08-23T19:04:11.525Z,7.13
2022-08-23T19:06:42.078Z,6.03
2022-08-23T19:09:13.191Z,7.55
2022-08-23T19:11:41.966Z,8.05
2022-08-23T19:14:12.689Z,7.22
2022-08-23T19:16:45.712Z,7.60
2022-08-23T19:19:16.603Z,4.70
2022-08-23T19:21:45.276Z,6.05
2022-08-23T19:24:16.244Z,6.20
2022-08-23T19:26:47.723Z,7.07
2022-08-23T19:29:18.500Z,6.30
2022-08-23T19:31:48.262Z,6.47
2022-08-23T19:34:17.504Z,5.72
2022-08-23T19:36:51.205Z,7.13
2022-08-23T19:39:26.744Z,5.60
2022-08-23T19:41:59.708Z,5.75
2022-08-23T19:44:28.585Z,6.97
2022-08-23T19:47:06.934Z,7.13
2022-08-23T19:49:42.133Z,8.57
2022-08-23T19:52:10.925Z,8.48
2022-08-23T19:54:43.570Z,6.95
2022-08-23T19:57:13.549Z,6.45
2022-08-23T19:59:44.688Z,7.50
2022-08-23T20:02:14.588Z,6.85
2022-08-23T20:04:43.599Z,5.72
2022-08-23T20:07:15.513Z,5.55
2022-08-23T20:09:46.265Z,6.78
2022-08-23T20:12:18.964Z,7.30
2022-08-23T20:14:49.529Z,7.65
2022-08-23T20:17:21.131Z,4.75
2022-08-23T20:19:53.146Z,6.13
2022-08-23T20:22:40.547Z,5.00
2022-08-23T20:25:12.795Z,5.18
2022-08-23T20:27:42.893Z,5.63
2022-08-23T20:30:14.327Z,7.05
2022-08-23T20:32:44.690Z,5.13
2022-08-23T20:35:14.071Z,5.43
2022-08-23T20:37:42.743Z,7.03
2022-08-23T20:40:14.817Z,5.43
2022-08-23T20:42:43.573Z,7.38
2022-08-23T20:45:12.499Z,6.90
2022-08-23T20:47:41.338Z,6.80
2022-08-23T20:50:12.911Z,7.40
2022-08-23T20:52:43.173Z,5.78
2022-08-23T20:55:13.688Z,5.05
2022-08-23T20:57:44.819Z,6.75
2022-08-23T21:00:14.082Z,7.82
2022-08-23T21:02:42.620Z,5.25
2022-08-23T21:05:11.382Z,5.13
2022-08-23T21:07:40.633Z,9.70
2022-08-23T21:10:15.257Z,6.63
2022-08-23T21:12:45.661Z,6.60
2022-08-23T21:15:15.365Z,6.18
2022-08-23T21:17:43.914Z,6.95
2022-08-23T21:20:17.533Z,6.40
2022-08-23T21:22:45.899Z,6.13
2022-08-23T21:25:14.453Z,7.15
2022-08-23T21:27:43.054Z,7.93
2022-08-23T21:30:14.381Z,6.35
2022-08-23T21:32:42.983Z,7.32
2022-08-23T21:35:14.021Z,5.50
2022-08-23T21:37:42.957Z,5.85
2022-08-23T21:40:12.574Z,5.35
2022-08-23T21:42:41.220Z,6.38
2022-08-23T21:45:10.498Z,7.43
2022-08-23T21:47:41.453Z,5.70
2022-08-23T21:50:10.526Z,7.47
2022-08-23T21:52:39.292Z,6.53
2022-08-23T21:55:09.102Z,6.60
2022-08-23T21:57:37.569Z,7.60
2022-08-23T22:00:07.750Z,6.47
2022-08-23T22:02:45.182Z,9.20
2022-08-23T22:05:14.716Z,8.20
2022-08-23T22:07:43.805Z,7.53
2022-08-23T22:10:13.216Z,6.67
2022-08-23T22:12:43.353Z,6.50
2022-08-23T22:15:12.994Z,5.13
2022-08-23T22:17:41.674Z,6.63
2022-08-23T22:20:13.519Z,6.88
2022-08-23T22:22:43.556Z,8.57
2022-08-23T22:25:12.901Z,6.93
2022-08-23T22:27:41.489Z,7.03
2022-08-23T22:30:12.496Z,5.50
2022-08-23T22:32:41.675Z,5.40
2022-08-23T22:35:12.558Z,8.13
2022-08-23T22:37:53.834Z,5.33
2022-08-23T22:40:30.055Z,4.97
2022-08-23T22:42:58.534Z,8.70
2022-08-23T22:45:26.969Z,8.17
2022-08-23T22:47:55.404Z,6.70
2022-08-23T22:50:25.412Z,6.60
2022-08-23T22:52:53.807Z,6.83
2022-08-23T22:55:22.845Z,6.93
2022-08-23T22:57:51.306Z,7.27
2022-08-23T23:00:21.993Z,6.10
2022-08-23T23:02:50.419Z,7.10
2022-08-23T23:05:19.601Z,7.27
2022-08-23T23:08:06.892Z,5.73
2022-08-23T23:10:35.306Z,8.20
2022-08-23T23:13:03.684Z,5.83
2022-08-23T23:15:32.181Z,7.50
2022-08-23T23:18:00.538Z,9.43
2022-08-23T23:20:39.080Z,6.30
2022-08-23T23:23:09.500Z,5.77
2022-08-23T23:25:41.335Z,8.63
2022-08-23T23:28:09.707Z,6.20
2022-08-23T23:30:38.480Z,5.33
2022-08-23T23:33:06.943Z,5.63
2022-08-23T23:35:35.644Z,6.60
2022-08-23T23:38:04.552Z,5.87
2022-08-23T23:40:35.216Z,7.40
2022-08-23T23:43:03.676Z,5.30
2022-08-23T23:45:32.304Z,7.93
2022-08-23T23:48:01.040Z,7.93
2022-08-23T23:50:32.421Z,5.97
2022-08-23T23:53:02.944Z,5.73
2022-08-23T23:55:31.382Z,7.63
2022-08-23T23:58:02.496Z,7.87
